Time;durP1;ratioP1;P1;durP2;ratioP2;P2;SDS_P1;SDS_P2;PMS_P1;PMS_P2;Temp;Humidity;BMP_temperature;BMP_pressure;BME280_temperature;BME280_humidity;BME280_pressure;Samples;Min_cycle;Max_cycle;Signal;HPM_P1;HPM_P2
2022/10/13 04:22:50;;;;;;;14.93;7.07;;;;;;;9.77;100.00;100714.63;5088915;28;20320;-61
2022/10/13 04:25:16;;;;;;;16.48;5.97;;;;;;;9.78;100.00;100703.03;5088925;28;20032;-62
2022/10/13 04:27:41;;;;;;;11.85;6.22;;;;;;;9.82;100.00;100707.03;5087598;28;20043;-63
2022/10/13 04:30:08;;;;;;;10.25;6.05;;;;;;;9.84;100.00;100699.69;5089211;28;20041;-62
2022/10/13 04:32:33;;;;;;;11.00;5.72;;;;;;;9.83;100.00;100700.69;5088657;28;20036;-61
2022/10/13 04:35:01;;;;;;;13.52;5.70;;;;;;;9.82;100.00;100709.69;5089491;28;20043;-60
2022/10/13 04:37:26;;;;;;;16.83;7.53;;;;;;;9.80;100.00;100709.00;5088813;28;20036;-61
2022/10/13 04:39:52;;;;;;;14.50;6.47;;;;;;;9.80;100.00;100714.34;5089442;28;20043;-63
2022/10/13 04:42:17;;;;;;;13.25;7.15;;;;;;;9.84;100.00;100710.34;5088540;28;20089;-64
2022/10/13 04:44:42;;;;;;;11.45;6.45;;;;;;;9.86;100.00;100718.19;5088609;28;20036;-63
2022/10/13 04:47:10;;;;;;;15.98;7.80;;;;;;;9.89;100.00;100716.03;5088541;28;20033;-63
2022/10/13 04:49:36;;;;;;;17.00;7.82;;;;;;;9.91;100.00;100711.41;5088639;28;20054;-64
2022/10/13 04:52:01;;;;;;;14.50;6.47;;;;;;;9.94;100.00;100712.91;5088200;28;20048;-63
2022/10/13 04:54:27;;;;;;;20.08;8.10;;;;;;;9.95;100.00;100710.09;5088498;28;20374;-64
2022/10/13 04:56:52;;;;;;;15.57;7.13;;;;;;;9.97;100.00;100702.78;5088365;28;20060;-64
2022/10/13 04:59:17;;;;;;;13.07;6.97;;;;;;;9.97;100.00;100713.41;5088265;28;20129;-63
2022/10/13 05:01:43;;;;;;;21.67;8.70;;;;;;;9.97;100.00;100701.94;5087957;28;20038;-62
2022/10/13 05:04:12;;;;;;;12.90;6.63;;;;;;;9.96;100.00;100708.25;5088564;28;20431;-63
2022/10/13 05:06:39;;;;;;;11.27;5.80;;;;;;;9.93;100.00;100714.75;5088382;28;20035;-63
2022/10/13 05:09:05;;;;;;;13.95;6.60;;;;;;;9.94;100.00;100713.75;5088382;28;20105;-63
2022/10/13 05:11:31;;;;;;;12.20;5.57;;;;;;;9.93;100.00;100711.25;5087886;28;20036;-63
2022/10/13 05:13:57;;;;;;;7.80;4.70;;;;;;;9.94;100.00;100708.44;5088255;28;20035;-63
2022/10/13 05:16:24;;;;;;;14.57;6.20;;;;;;;9.95;100.00;100699.44;5088044;28;20040;-63
2022/10/13 05:18:51;;;;;;;10.40;5.50;;;;;;;9.96;100.00;100700.28;5088420;28;20035;-63
2022/10/13 05:21:20;;;;;;;8.68;5.00;;;;;;;9.99;100.00;100699.97;5087779;28;20282;-63
2022/10/13 05:23:46;;;;;;;8.13;5.25;;;;;;;9.94;100.00;100692.47;5086910;28;20040;-63
2022/10/13 05:26:15;;;;;;;12.95;6.15;;;;;;;9.96;100.00;100677.16;5087835;28;20074;-63
2022/10/13 05:28:41;;;;;;;15.30;6.20;;;;;;;9.95;100.00;100672.00;5088172;28;20072;-63
2022/10/13 05:31:15;;;;;;;12.73;5.60;;;;;;;9.92;100.00;100657.19;5087927;28;20124;-62
2022/10/13 05:33:41;;;;;;;10.68;5.57;;;;;;;9.91;100.00;100646.69;5078073;28;20064;-62
2022/10/13 05:36:16;;;;;;;8.20;4.75;;;;;;;9.96;100.00;100647.06;5074842;28;20036;-63
2022/10/13 05:38:42;;;;;;;9.07;5.57;;;;;;;9.94;100.00;100639.22;5075132;28;20040;-63
2022/10/13 05:41:10;;;;;;;12.40;6.65;;;;;;;9.94;100.00;100647.22;5075242;28;20039;-63
2022/10/13 05:43:38;;;;;;;15.77;6.55;;;;;;;9.95;100.00;100643.56;5075265;28;20496;-63
2022/10/13 05:46:04;;;;;;;13.07;5.68;;;;;;;9.95;100.00;100624.09;5074867;28;20075;-63
2022/10/13 05:48:35;;;;;;;10.27;5.60;;;;;;;9.99;100.00;100636.94;5074589;28;20125;-62
2022/10/13 05:51:05;;;;;;;13.02;6.60;;;;;;;10.00;100.00;100638.59;5074001;28;20443;-62
2022/10/13 05:53:34;;;;;;;16.00;7.43;;;;;;;10.02;100.00;100633.94;5075556;28;20056;-61
2022/10/13 05:56:05;;;;;;;14.73;7.22;;;;;;;10.03;100.00;100640.91;5073747;28;20043;-63
2022/10/13 05:58:35;;;;;;;13.52;7.32;;;;;;;10.04;100.00;100633.78;5073708;28;20036;-62
2022/10/13 06:01:01;;;;;;;15.93;6.88;;;;;;;10.06;100.00;100637.97;5073401;28;20025;-61
2022/10/13 06:03:27;;;;;;;13.95;7.00;;;;;;;10.09;100.00;100628.81;5073723;28;20048;-61
2022/10/13 06:05:53;;;;;;;14.30;6.35;;;;;;;10.10;100.00;100633.13;5073374;28;20073;-59
2022/10/13 06:08:18;;;;;;;14.77;6.65;;;;;;;10.12;100.00;100631.16;5073615;28;20108;-61
2022/10/13 06:10:45;;;;;;;16.83;6.18;;;;;;;10.14;100.00;100638.97;5073094;28;20400;-61
2022/10/13 06:13:10;;;;;;;19.70;6.40;;;;;;;10.15;100.00;100635.31;5073537;28;20040;-61
2022/10/13 06:15:35;;;;;;;14.63;7.03;;;;;;;10.19;100.00;100645.50;5072058;28;20046;-60
2022/10/13 06:18:01;;;;;;;15.63;6.28;;;;;;;10.21;100.00;100635.50;5073405;28;20461;-60
2022/10/13 06:20:26;;;;;;;14.98;7.20;;;;;;;10.26;100.00;100645.72;5072859;28;20111;-62
2022/10/13 06:22:55;;;;;;;14.20;6.45;;;;;;;10.30;100.00;100636.38;5072122;28;20413;-59
2022/10/13 06:25:20;;;;;;;11.45;6.47;;;;;;;10.37;100.00;100634.78;5073182;28;20079;-58
2022/10/13 06:27:46;;;;;;;13.55;6.70;;;;;;;10.39;100.00;100637.25;5073214;28;20118;-61
2022/10/13 06:30:11;;;;;;;19.45;6.82;;;;;;;10.41;100.00;100636.09;5072979;28;20097;-59
2022/10/13 06:32:37;;;;;;;14.98;7.47;;;;;;;10.44;100.00;100645.59;5072989;28;20039;-62
2022/10/13 06:35:03;;;;;;;16.77;7.05;;;;;;;10.49;100.00;100644.09;5072993;28;20141;-61
2022/10/13 06:37:28;;;;;;;16.95;7.75;;;;;;;10.50;100.00;100653.78;5072865;28;20442;-61
2022/10/13 06:39:54;;;;;;;16.42;7.20;;;;;;;10.55;100.00;100659.44;5072767;28;20129;-61
2022/10/13 06:42:19;;;;;;;17.92;7.45;;;;;;;10.60;100.00;100662.44;5072637;28;20094;-61
2022/10/13 06:44:46;;;;;;;23.27;7.15;;;;;;;10.63;100.00;100665.78;5070541;28;20040;-62
2022/10/13 06:47:11;;;;;;;15.48;6.93;;;;;;;10.68;100.00;100668.78;5072743;28;20048;-62
2022/10/13 06:49:37;;;;;;;12.60;6.85;;;;;;;10.70;100.00;100669.47;5072572;28;20039;-62
2022/10/13 06:52:03;;;;;;;17.83;7.82;;;;;;;10.73;100.00;100663.81;5072340;28;20036;-62
2022/10/13 06:54:29;;;;;;;16.35;7.53;;;;;;;10.77;100.00;100659.81;5072697;28;20040;-63
2022/10/13 06:56:54;;;;;;;16.08;6.47;;;;;;;10.85;100.00;100657.16;5072656;28;20048;-63
2022/10/13 06:59:20;;;;;;;14.60;7.68;;;;;;;10.90;100.00;100659.34;5072697;28;20177;-63
2022/10/13 07:01:46;;;;;;;13.60;6.85;;;;;;;10.95;100.00;100660.50;5072118;28;20028;-62
2022/10/13 07:04:14;;;;;;;16.02;7.40;;;;;;;10.99;100.00;100664.50;5072320;28;20040;-62
2022/10/13 07:06:40;;;;;;;15.35;7.25;;;;;;;11.05;100.00;100663.84;5072395;28;20036;-65
2022/10/13 07:09:07;;;;;;;14.75;7.75;;;;;;;11.08;100.00;100652.84;5071211;28;20108;-65
2022/10/13 07:11:32;;;;;;;13.40;7.35;;;;;;;11.12;100.00;100646.19;5070576;28;20127;-65
2022/10/13 07:13:58;;;;;;;15.20;8.70;;;;;;;11.18;100.00;100647.34;5072222;28;20067;-65
2022/10/13 07:16:23;;;;;;;20.95;8.25;;;;;;;11.22;100.00;100654.03;5072107;28;20511;-65
2022/10/13 07:18:49;;;;;;;17.08;8.38;;;;;;;11.28;100.00;100661.34;5072023;28;20047;-66
2022/10/13 07:21:15;;;;;;;13.40;7.47;;;;;;;11.32;100.00;100664.50;5071651;28;20085;-65
2022/10/13 07:23:40;;;;;;;17.02;7.63;;;;;;;11.39;100.00;100663.66;5072116;28;20123;-65
2022/10/13 07:26:11;;;;;;;21.45;8.63;;;;;;;11.45;100.00;100664.81;5072011;28;20036;-65
2022/10/13 07:28:37;;;;;;;13.80;8.00;;;;;;;11.50;100.00;100665.16;5071936;28;20393;-64
2022/10/13 07:31:12;;;;;;;15.80;7.88;;;;;;;11.50;100.00;100664.31;5071536;28;20089;-65
2022/10/13 07:33:38;;;;;;;14.10;7.38;;;;;;;11.53;100.00;100656.78;5071849;28;20477;-64
2022/10/13 07:36:04;;;;;;;15.63;7.60;;;;;;;11.61;100.00;100655.97;5071723;28;20041;-65
2022/10/13 07:38:30;;;;;;;16.98;7.07;;;;;;;11.64;100.00;100651.13;5071829;28;20051;-64
2022/10/13 07:40:59;;;;;;;14.77;8.00;;;;;;;11.63;100.00;100659.28;5071487;28;20036;-64
2022/10/13 07:43:24;;;;;;;16.85;7.57;;;;;;;11.69;100.00;100659.44;5071803;28;20116;-65
2022/10/13 07:45:50;;;;;;;14.98;7.45;;;;;;;11.76;100.00;100650.75;5071618;28;20069;-63
2022/10/13 07:48:18;;;;;;;13.20;7.15;;;;;;;11.79;100.00;100653.91;5070389;28;20033;-65
2022/10/13 07:50:44;;;;;;;13.05;7.15;;;;;;;11.84;100.00;100656.94;5071274;28;20105;-64
2022/10/13 07:53:09;;;;;;;16.45;8.07;;;;;;;11.89;100.00;100648.41;5071533;28;20039;-65
2022/10/13 07:55:35;;;;;;;19.13;8.48;;;;;;;11.94;100.00;100651.41;5071334;28;20033;-66
2022/10/13 07:58:02;;;;;;;15.55;7.78;;;;;;;12.00;100.00;100639.19;5070350;28;20036;-65
2022/10/13 08:00:32;;;;;;;19.52;7.93;;;;;;;12.09;100.00;100644.34;5071266;28;20129;-65
2022/10/13 08:02:57;;;;;;;18.85;7.15;;;;;;;12.17;100.00;100636.28;5071471;28;20048;-65
2022/10/13 08:05:23;;;;;;;13.52;7.75;;;;;;;12.21;100.00;100632.25;5071512;28;20036;-65
2022/10/13 08:07:48;;;;;;;27.23;9.40;;;;;;;12.23;100.00;100634.75;5071439;28;20445;-65
2022/10/13 08:10:14;;;;;;;18.00;8.13;;;;;;;12.28;100.00;100634.25;5071181;28;20122;-65
2022/10/13 08:12:40;;;;;;;15.85;8.73;;;;;;;12.26;100.00;100638.91;5071295;28;20474;-65
2022/10/13 08:15:08;;;;;;;12.80;7.78;;;;;;;12.33;100.00;100645.22;5071368;28;20044;-64
2022/10/13 08:17:33;;;;;;;15.45;7.88;;;;;;;12.36;100.00;100645.69;5071255;28;20032;-65
2022/10/13 08:19:59;;;;;;;16.17;7.82;;;;;;;12.43;100.00;100648.50;5071181;28;20378;-65
2022/10/13 08:22:26;;;;;;;13.65;7.78;;;;;;;12.48;100.00;100643.47;5069234;28;20516;-64
2022/10/13 08:24:51;;;;;;;16.05;7.70;;;;;;;12.53;100.00;100641.13;5071311;28;20036;-64
2022/10/13 08:27:22;;;;;;;11.73;7.63;;;;;;;12.51;100.00;100640.44;5071071;28;20048;-64
2022/10/13 08:29:48;;;;;;;17.27;8.50;;;;;;;12.61;100.00;100649.06;5071091;28;20397;-63
2022/10/13 08:32:14;;;;;;;15.80;7.82;;;;;;;12.64;100.00;100640.69;5070790;28;20036;-64
2022/10/13 08:34:39;;;;;;;16.63;8.13;;;;;;;12.67;100.00;100644.88;5071151;28;20029;-64
2022/10/13 08:37:05;;;;;;;14.30;7.35;;;;;;;12.72;100.00;100650.50;5071001;28;20037;-64
2022/10/13 08:39:30;;;;;;;17.52;7.30;;;;;;;12.77;100.00;100640.09;5071045;28;20064;-64
2022/10/13 08:41:56;;;;;;;16.98;7.13;;;;;;;12.82;100.00;100643.06;5072063;28;20050;-65
2022/10/13 08:44:41;;;;;;;15.85;7.38;;;;;;;12.86;100.00;100647.06;5087946;28;20066;-65
2022/10/13 08:47:18;;;;;;;17.58;7.90;;;;;;;13.01;100.00;100655.13;5078840;28;20046;-65
2022/10/13 08:49:45;;;;;;;13.75;7.70;;;;;;;13.10;100.00;100651.38;5077514;28;20547;-65
2022/10/13 08:52:20;;;;;;;19.35;8.13;;;;;;;13.15;100.00;100635.63;5087239;28;20036;-65
2022/10/13 08:54:47;;;;;;;15.02;8.65;;;;;;;13.20;100.00;100643.97;5076152;28;20063;-66
2022/10/13 08:57:14;;;;;;;18.33;8.47;;;;;;;13.26;100.00;100648.59;5081902;28;20059;-66
2022/10/13 08:59:39;;;;;;;16.67;7.80;;;;;;;13.29;100.00;100652.75;5083383;28;20286;-66
2022/10/13 09:02:12;;;;;;;21.25;8.15;;;;;;;13.28;100.00;100654.59;5073182;28;20120;-67
2022/10/13 09:04:42;;;;;;;14.68;7.95;;;;;;;13.30;100.00;100649.91;5059195;28;20032;-66
2022/10/13 09:07:07;;;;;;;18.23;7.95;;;;;;;13.27;100.00;100657.47;5082433;28;20611;-66
2022/10/13 09:09:33;;;;;;;15.30;8.15;;;;;;;13.25;100.00;100662.16;5084662;28;20047;-66
2022/10/13 09:11:59;;;;;;;19.33;8.00;;;;;;;13.22;100.00;100655.31;5078833;28;20033;-67
2022/10/13 09:14:31;;;;;;;19.23;7.93;;;;;;;13.22;100.00;100652.66;5091269;28;20032;-65
2022/10/13 09:17:19;;;;;;;19.55;8.98;;;;;;;13.23;100.00;100656.16;5081013;28;20437;-65
2022/10/13 09:20:21;;;;;;;18.52;8.32;;;;;;;13.24;100.00;100658.66;5080816;28;20040;-65
2022/10/13 09:23:12;;;;;;;17.00;9.02;;;;;;;13.26;100.00;100656.63;5064665;28;20043;-65
2022/10/13 09:25:43;;;;;;;22.10;8.00;;;;;;;13.23;100.00;100656.97;5075859;28;20052;-64
2022/10/13 09:28:19;;;;;;;15.27;7.93;;;;;;;13.25;100.00;100659.50;5090676;28;20028;-66
2022/10/13 09:30:46;;;;;;;21.55;8.15;;;;;;;13.27;100.00;100655.63;5073984;28;20459;-66
2022/10/13 09:33:11;;;;;;;21.55;8.50;;;;;;;13.29;100.00;100648.22;5074277;28;20032;-67
2022/10/13 09:35:38;;;;;;;19.23;9.77;;;;;;;13.33;100.00;100642.53;5074193;28;20040;-64
2022/10/13 09:38:05;;;;;;;17.25;8.68;;;;;;;13.31;100.00;100645.41;5074211;28;20040;-63
2022/10/13 09:40:32;;;;;;;22.70;9.55;;;;;;;13.38;100.00;100648.19;5073870;28;20036;-64
2022/10/13 09:43:00;;;;;;;19.23;9.90;;;;;;;13.42;100.00;100649.47;5074266;28;20115;-65
2022/10/13 09:45:26;;;;;;;22.52;9.65;;;;;;;13.45;100.00;100644.59;5073962;28;20591;-65
2022/10/13 09:48:03;;;;;;;22.85;9.90;;;;;;;13.53;100.00;100632.97;5074007;28;20044;-65
2022/10/13 09:50:31;;;;;;;23.20;9.55;;;;;;;13.65;100.00;100636.84;5073696;28;20081;-62
2022/10/13 09:53:15;;;;;;;19.77;9.50;;;;;;;13.63;100.00;100632.69;5073726;28;20045;-63
2022/10/13 09:55:40;;;;;;;22.15;10.63;;;;;;;13.71;100.00;100640.66;5073896;28;20036;-64
2022/10/13 09:58:16;;;;;;;18.15;9.68;;;;;;;13.66;100.00;100635.84;5073828;28;20056;-64
2022/10/13 10:00:43;;;;;;;18.70;9.48;;;;;;;13.62;100.00;100634.53;5073552;28;20719;-63
2022/10/13 10:03:21;;;;;;;19.08;9.65;;;;;;;13.75;100.00;100642.75;5073686;28;20044;-63
2022/10/13 10:05:58;;;;;;;23.33;10.13;;;;;;;13.95;100.00;100626.97;5072298;28;20036;-63
2022/10/13 10:08:32;;;;;;;;;;;;;;;14.22;100.00;100627.31;5073025;28;20033;-64
2022/10/13 10:11:02;;;;;;;21.75;9.27;;;;;;;14.33;100.00;100633.00;5073155;28;20331;-63
2022/10/13 10:13:27;;;;;;;29.02;10.07;;;;;;;14.38;100.00;100633.28;5073541;28;20032;-64
2022/10/13 10:16:08;;;;;;;25.85;11.18;;;;;;;14.47;100.00;100620.59;5073295;28;20378;-64
2022/10/13 10:18:39;;;;;;;20.90;10.05;;;;;;;14.56;100.00;100624.03;5073302;28;20103;-64
2022/10/13 10:21:17;;;;;;;23.60;10.23;;;;;;;14.52;100.00;100625.41;5072965;28;20645;-64
2022/10/13 10:23:51;;;;;;;21.25;9.88;;;;;;;14.67;100.00;100631.56;5073410;28;20070;-64
2022/10/13 10:26:46;;;;;;;19.63;9.23;;;;;;;14.97;100.00;100626.91;5073166;28;20097;-64
2022/10/13 10:29:17;;;;;;;24.55;9.88;;;;;;;15.34;100.00;100627.63;5066906;28;20052;-63
2022/10/13 10:32:04;;;;;;;22.27;10.40;;;;;;;15.76;100.00;100626.69;5071692;28;20457;-63
2022/10/13 10:34:46;;;;;;;20.55;10.77;;;;;;;15.98;97.06;100627.44;5073152;28;20028;-64
2022/10/13 10:37:14;;;;;;;21.95;9.18;;;;;;;16.17;95.47;100620.47;5072889;28;20102;-63
2022/10/13 10:39:48;;;;;;;18.75;9.80;;;;;;;16.15;92.53;100619.84;5073029;28;20070;-63
2022/10/13 10:42:46;;;;;;;23.35;9.48;;;;;;;16.16;93.62;100613.44;5072642;28;20033;-63
2022/10/13 10:45:20;;;;;;;21.90;9.80;;;;;;;15.91;97.56;100613.97;5072815;28;20036;-63
2022/10/13 10:47:50;;;;;;;19.52;9.13;;;;;;;15.80;95.77;100616.38;5072965;28;20071;-64
2022/10/13 10:50:18;;;;;;;19.42;9.55;;;;;;;15.77;96.16;100612.22;5072767;28;20033;-64
2022/10/13 10:53:00;;;;;;;20.23;9.30;;;;;;;15.79;97.78;100612.88;5072855;28;20119;-65
2022/10/13 10:55:42;;;;;;;17.27;9.00;;;;;;;15.70;96.72;100617.56;5072708;28;20482;-64
2022/10/13 10:58:23;;;;;;;19.63;9.98;;;;;;;15.45;97.97;100608.28;5055290;28;20082;-64
2022/10/13 11:01:01;;;;;;;17.77;9.18;;;;;;;15.45;97.63;100609.13;5072348;28;20043;-64
2022/10/13 11:03:57;;;;;;;21.05;8.88;;;;;;;15.41;98.10;100602.50;5072451;28;20558;-64
2022/10/13 11:06:25;;;;;;;23.13;10.25;;;;;;;15.40;98.68;100598.16;5072432;28;20086;-64
2022/10/13 11:08:51;;;;;;;17.02;9.27;;;;;;;15.39;100.00;100599.19;5072441;28;20105;-64
2022/10/13 11:11:19;;;;;;;18.50;8.80;;;;;;;15.33;100.00;100597.28;5071975;28;20040;-64
2022/10/13 11:13:58;;;;;;;21.23;9.75;;;;;;;15.22;99.50;100592.44;5072248;28;20039;-64
2022/10/13 11:16:32;;;;;;;22.30;9.60;;;;;;;15.24;100.00;100587.69;5072233;28;20040;-63
2022/10/13 11:19:11;;;;;;;17.02;9.63;;;;;;;15.29;100.00;100587.94;5072274;28;20024;-64
2022/10/13 11:22:14;;;;;;;21.67;9.75;;;;;;;15.31;100.00;100575.16;5071981;28;20420;-63
2022/10/13 11:24:40;;;;;;;17.75;9.25;;;;;;;15.34;100.00;100576.63;5039767;28;20048;-64
2022/10/13 11:27:10;;;;;;;17.75;9.30;;;;;;;15.28;100.00;100572.03;5071926;28;20073;-64
2022/10/13 11:29:50;;;;;;;19.40;10.13;;;;;;;15.66;100.00;100564.47;5072072;28;20036;-64
2022/10/13 11:32:43;;;;;;;20.17;9.23;;;;;;;15.80;98.50;100555.44;5071201;28;20041;-64
2022/10/13 11:35:11;;;;;;;18.45;8.75;;;;;;;15.82;98.75;100558.75;5067701;28;20082;-64
2022/10/13 11:38:01;;;;;;;18.90;9.20;;;;;;;15.84;96.84;100548.63;5072109;28;20093;-64
2022/10/13 11:40:59;;;;;;;18.08;9.23;;;;;;;15.70;96.37;100534.31;5070667;28;20032;-64
2022/10/13 11:43:36;;;;;;;18.13;9.25;;;;;;;15.80;94.62;100525.91;5071850;28;20031;-64
2022/10/13 11:46:48;;;;;;;16.70;8.27;;;;;;;16.09;95.99;100530.13;5070523;28;20043;-64
2022/10/13 11:49:37;;;;;;;16.10;8.25;;;;;;;16.35;95.18;100525.84;5071765;28;20079;-64
2022/10/13 11:52:33;;;;;;;18.88;8.80;;;;;;;16.59;93.14;100527.13;5071460;28;20043;-64
2022/10/13 11:55:28;;;;;;;17.92;8.63;;;;;;;16.87;92.59;100526.94;5071796;28;20085;-64
2022/10/13 11:58:20;;;;;;;18.90;8.48;;;;;;;16.89;90.32;100520.34;5051767;28;20037;-64
2022/10/13 12:01:05;;;;;;;18.40;9.20;;;;;;;16.90;88.69;100521.16;5051530;28;20390;-64
2022/10/13 12:03:39;;;;;;;18.92;9.80;;;;;;;16.91;89.91;100520.94;5051894;28;20047;-64
2022/10/13 12:06:31;;;;;;;20.25;8.80;;;;;;;16.78;90.46;100518.25;5050195;28;20047;-64
2022/10/13 12:08:56;;;;;;;15.05;8.18;;;;;;;16.84;90.62;100506.69;5051710;28;20033;-64
2022/10/13 12:11:28;;;;;;;16.65;8.07;;;;;;;16.86;91.12;100504.59;5050972;28;20139;-63
2022/10/13 12:13:54;;;;;;;12.63;8.18;;;;;;;16.75;91.33;100507.91;5051585;28;20103;-64
2022/10/13 12:16:20;;;;;;;17.17;8.20;;;;;;;16.77;90.48;100497.78;5051367;28;20551;-64
2022/10/13 12:18:48;;;;;;;16.70;8.07;;;;;;;16.67;91.32;100491.94;5051463;28;20060;-63
2022/10/13 12:21:21;;;;;;;13.45;7.60;;;;;;;16.58;93.98;100496.72;5051028;28;20064;-64
2022/10/13 12:23:48;;;;;;;15.73;9.30;;;;;;;16.50;93.10;100497.75;5051384;28;20036;-64
2022/10/13 12:26:19;;;;;;;;;;;;;;;16.49;91.82;100496.06;5051659;28;20037;-64
2022/10/13 12:28:59;;;;;;;15.55;8.63;;;;;;;16.60;91.92;100496.50;5051373;28;20396;-64
2022/10/13 12:31:29;;;;;;;18.13;7.90;;;;;;;16.51;91.23;100491.34;5049769;28;20041;-64
2022/10/13 12:33:59;;;;;;;17.55;8.02;;;;;;;16.52;92.31;100487.59;5051271;28;20041;-65
2022/10/13 12:36:30;;;;;;;16.80;7.65;;;;;;;16.53;92.45;100485.75;5051305;28;20040;-64
2022/10/13 12:39:17;;;;;;;17.13;8.73;;;;;;;16.38;95.54;100480.56;5051760;28;20052;-64
2022/10/13 12:41:44;;;;;;;18.80;8.60;;;;;;;16.40;94.71;100478.50;5050850;28;20029;-65
2022/10/13 12:44:14;;;;;;;;;;;;;;;16.36;95.14;100477.25;5054703;28;20082;-64
2022/10/13 12:46:45;;;;;;;18.52;8.02;;;;;;;16.47;94.52;100484.69;5055158;28;19996;-65
2022/10/13 12:49:46;;;;;;;16.88;7.68;;;;;;;16.44;94.53;100490.50;5055147;28;20033;-64
2022/10/13 12:52:14;;;;;;;16.13;7.80;;;;;;;16.37;94.27;100481.63;5012585;28;20483;-65
2022/10/13 12:54:49;;;;;;;13.85;8.07;;;;;;;16.40;93.33;100477.66;5047166;28;20053;-65
2022/10/13 12:57:21;;;;;;;15.13;7.40;;;;;;;16.50;92.60;100473.56;5054793;28;20037;-65
2022/10/13 12:59:48;;;;;;;20.63;8.60;;;;;;;16.48;94.25;100470.22;5053690;28;20457;-64
2022/10/13 13:02:29;;;;;;;20.40;8.43;;;;;;;16.50;94.20;100478.94;5054590;28;20040;-64
2022/10/13 13:04:55;;;;;;;20.95;9.32;;;;;;;16.49;93.97;100474.56;5054894;28;20040;-65
2022/10/13 13:07:28;;;;;;;19.85;9.10;;;;;;;16.58;93.63;100477.06;5054720;28;20040;-64
2022/10/13 13:10:05;;;;;;;14.48;7.90;;;;;;;16.67;93.30;100473.13;5053386;28;20086;-61
2022/10/13 13:12:31;;;;;;;17.25;8.05;;;;;;;16.67;94.31;100475.81;5053035;28;20044;-65
2022/10/13 13:14:57;;;;;;;12.18;7.22;;;;;;;16.73;92.47;100469.63;5054603;28;20037;-65
2022/10/13 13:17:31;;;;;;;17.25;8.90;;;;;;;16.71;91.68;100466.34;5054459;28;20100;-64
2022/10/13 13:19:57;;;;;;;16.67;8.40;;;;;;;16.61;91.39;100469.41;5054438;28;20037;-65
2022/10/13 13:22:24;;;;;;;15.52;7.93;;;;;;;16.70;90.31;100472.75;5054132;28;20065;-65
2022/10/13 13:24:50;;;;;;;15.50;7.75;;;;;;;16.68;91.48;100480.16;5055157;28;20060;-66
2022/10/13 13:27:20;;;;;;;14.57;8.20;;;;;;;16.71;91.05;100480.63;5054276;28;20072;-66
2022/10/13 13:29:46;;;;;;;14.45;7.75;;;;;;;16.71;91.29;100480.63;5054298;28;20045;-66
2022/10/13 13:32:14;;;;;;;14.40;7.40;;;;;;;16.63;91.65;100478.09;5053929;28;20054;-65
2022/10/13 13:34:40;;;;;;;15.07;8.13;;;;;;;16.58;91.60;100463.63;5054092;28;20451;-65
2022/10/13 13:37:30;;;;;;;14.63;7.38;;;;;;;16.69;91.93;100465.66;5054240;28;20045;-66
2022/10/13 13:39:56;;;;;;;16.10;8.40;;;;;;;16.74;91.90;100463.22;5053676;28;20106;-65
2022/10/13 13:42:21;;;;;;;19.58;8.88;;;;;;;16.75;90.85;100462.19;5053954;28;20045;-65
2022/10/13 13:44:47;;;;;;;19.30;8.10;;;;;;;16.75;91.12;100464.88;5054154;28;20082;-65
2022/10/13 13:47:18;;;;;;;17.13;8.05;;;;;;;16.79;91.62;100456.19;5053926;28;20040;-65
2022/10/13 13:49:45;;;;;;;15.57;7.82;;;;;;;16.80;93.63;100457.00;5054085;28;20112;-66
2022/10/13 13:52:10;;;;;;;16.10;7.95;;;;;;;16.78;91.72;100445.63;5053518;28;20041;-66
2022/10/13 13:54:35;;;;;;;16.85;7.95;;;;;;;16.88;91.72;100454.09;5053352;28;20112;-65
2022/10/13 13:57:01;;;;;;;17.15;8.20;;;;;;;16.91;91.92;100448.31;5053997;28;20037;-65
2022/10/13 13:59:27;;;;;;;19.05;8.25;;;;;;;16.87;91.50;100448.94;5054015;28;20047;-66
2022/10/13 14:01:53;;;;;;;16.95;8.30;;;;;;;16.87;92.54;100447.06;5052302;28;20041;-65
2022/10/13 14:04:20;;;;;;;17.83;9.32;;;;;;;16.91;91.42;100439.41;5053756;28;20080;-66
2022/10/13 14:06:46;;;;;;;14.27;7.45;;;;;;;16.87;91.94;100433.63;5053635;28;20484;-66
2022/10/13 14:09:11;;;;;;;19.40;8.02;;;;;;;16.85;93.14;100442.94;5053851;28;20044;-66
2022/10/13 14:11:36;;;;;;;17.77;8.32;;;;;;;16.87;92.57;100446.25;5035335;28;20095;-65
2022/10/13 14:14:02;;;;;;;16.92;8.68;;;;;;;16.82;92.95;100449.53;5052159;28;20059;-66
2022/10/13 14:16:27;;;;;;;16.75;8.30;;;;;;;16.83;93.13;100445.84;5052036;28;20028;-66
2022/10/13 14:18:55;;;;;;;13.52;8.07;;;;;;;16.80;93.68;100443.56;5053339;28;20040;-65
2022/10/13 14:21:23;;;;;;;13.32;7.15;;;;;;;16.75;93.48;100436.09;5052907;28;20037;-65
2022/10/13 14:23:48;;;;;;;14.88;8.00;;;;;;;16.74;94.47;100434.47;5053261;28;20045;-66
2022/10/13 14:26:14;;;;;;;19.65;8.18;;;;;;;16.71;93.92;100432.19;5053169;28;20031;-65
2022/10/13 14:28:43;;;;;;;17.70;8.65;;;;;;;16.66;94.67;100433.81;5053224;28;20041;-66
2022/10/13 14:31:10;;;;;;;21.33;8.20;;;;;;;16.68;94.50;100435.25;5053196;28;20029;-65
2022/10/13 14:33:37;;;;;;;13.48;7.85;;;;;;;16.69;94.79;100431.56;5053155;28;20041;-65
2022/10/13 14:36:05;;;;;;;20.45;8.00;;;;;;;16.66;94.82;100420.38;5053078;28;20045;-65
2022/10/13 14:38:32;;;;;;;17.38;7.65;;;;;;;16.67;95.39;100424.72;5052967;28;20037;-65
2022/10/13 14:41:02;;;;;;;14.40;7.07;;;;;;;16.64;95.00;100427.84;5052706;28;20033;-65
2022/10/13 14:43:28;;;;;;;13.23;7.05;;;;;;;16.62;94.86;100433.41;5053025;28;20029;-66
2022/10/13 14:45:54;;;;;;;15.40;7.32;;;;;;;16.64;96.13;100430.53;5052803;28;20499;-66
2022/10/13 14:48:20;;;;;;;16.45;7.88;;;;;;;16.66;95.34;100439.19;5052762;28;20406;-66
2022/10/13 14:50:45;;;;;;;20.02;9.15;;;;;;;16.62;95.72;100429.88;5052419;28;20044;-65
2022/10/13 14:53:14;;;;;;;14.43;7.07;;;;;;;16.58;96.23;100434.88;5051571;28;20044;-66
2022/10/13 14:55:42;;;;;;;15.45;8.30;;;;;;;16.52;96.48;100433.00;5052545;28;20052;-66
2022/10/13 14:58:09;;;;;;;13.48;7.00;;;;;;;16.57;96.58;100438.59;5051379;28;20425;-66
2022/10/13 15:00:34;;;;;;;13.40;8.20;;;;;;;16.55;96.80;100430.72;5052240;28;20056;-66
2022/10/13 15:03:00;;;;;;;14.45;7.97;;;;;;;16.54;97.81;100430.94;5052584;28;20025;-66
2022/10/13 15:05:26;;;;;;;17.05;7.65;;;;;;;16.55;97.90;100433.41;5051505;28;20037;-66
2022/10/13 15:07:51;;;;;;;16.67;8.07;;;;;;;16.54;97.73;100441.69;5052275;28;20041;-65
2022/10/13 15:10:16;;;;;;;13.43;7.35;;;;;;;16.56;97.81;100444.97;5051977;28;20513;-65
2022/10/13 15:12:42;;;;;;;12.70;6.07;;;;;;;16.48;98.21;100429.06;5052233;28;20491;-66
2022/10/13 15:15:08;;;;;;;13.30;7.30;;;;;;;16.54;97.93;100436.31;5052283;28;20080;-66
2022/10/13 15:17:35;;;;;;;13.50;7.35;;;;;;;16.57;98.30;100438.59;5051126;28;20036;-66
2022/10/13 15:20:02;;;;;;;12.85;7.55;;;;;;;16.55;98.01;100432.59;5051963;28;20128;-65
2022/10/13 15:22:28;;;;;;;13.90;7.18;;;;;;;16.57;97.81;100440.47;5051904;28;20029;-65
2022/10/13 15:24:53;;;;;;;11.48;6.78;;;;;;;16.55;97.73;100429.88;5051997;28;20037;-65
2022/10/13 15:27:19;;;;;;;15.95;7.15;;;;;;;16.54;98.12;100421.00;5051908;28;20033;-66
2022/10/13 15:29:44;;;;;;;13.10;8.02;;;;;;;16.55;98.14;100428.03;5052045;28;20108;-66
2022/10/13 15:32:11;;;;;;;13.32;6.88;;;;;;;16.55;98.99;100419.13;5051564;28;20073;-65
2022/10/13 15:34:38;;;;;;;13.50;6.75;;;;;;;16.55;99.22;100430.72;5052094;28;20116;-65
2022/10/13 15:37:03;;;;;;;15.97;7.97;;;;;;;16.56;99.39;100423.47;5051782;28;20132;-64
2022/10/13 15:39:29;;;;;;;11.48;6.97;;;;;;;16.56;98.96;100423.47;5050695;28;20103;-65
2022/10/13 15:41:55;;;;;;;10.75;7.18;;;;;;;16.55;99.16;100428.03;5051544;28;20509;-65
2022/10/13 15:44:23;;;;;;;13.80;6.88;;;;;;;16.56;99.18;100428.84;5051833;28;20071;-66
2022/10/13 15:46:49;;;;;;;10.00;5.95;;;;;;;16.53;99.48;100423.91;5051719;28;20041;-65
2022/10/13 15:49:15;;;;;;;12.98;5.93;;;;;;;16.53;99.45;100427.41;5034310;28;20044;-65